createdAt,value
2022-11-15T00:00:49.303Z,98187.06
2022-11-15T00:03:21.276Z,98190.50
2022-11-15T00:05:48.339Z,98188.16
2022-11-15T00:08:15.003Z,98189.91
2022-11-15T00:10:42.015Z,98184.72
2022-11-15T00:13:10.476Z,98189.94
2022-11-15T00:15:37.602Z,98179.81
2022-11-15T00:18:05.169Z,98185.09
2022-11-15T00:20:32.383Z,98181.56
2022-11-15T00:22:58.783Z,98187.66
2022-11-15T00:25:25.251Z,98191.25
2022-11-15T00:27:52.696Z,98180.88
2022-11-15T00:30:19.075Z,98189.50
2022-11-15T00:32:45.496Z,98186.03
2022-11-15T00:35:11.909Z,98187.81
2022-11-15T00:37:38.272Z,98183.63
2022-11-15T00:40:05.152Z,98186.25
2022-11-15T00:42:31.567Z,98184.63
2022-11-15T00:44:58.075Z,98177.75
2022-11-15T00:47:24.458Z,98177.91
2022-11-15T00:49:50.859Z,98177.94
2022-11-15T00:52:17.237Z,98179.72
2022-11-15T00:54:43.684Z,98176.25
2022-11-15T00:57:10.210Z,98177.13
2022-11-15T00:59:36.687Z,98175.38
2022-11-15T01:02:03.164Z,98172.88
2022-11-15T01:04:29.591Z,98175.38
2022-11-15T01:06:56.126Z,98165.28
2022-11-15T01:09:22.837Z,98161.06
2022-11-15T01:11:49.255Z,98164.50
2022-11-15T01:14:15.663Z,98164.50
2022-11-15T01:16:43.304Z,98168.81
2022-11-15T01:19:09.690Z,98162.88
2022-11-15T01:21:36.078Z,98159.44
2022-11-15T01:24:02.536Z,98157.75
2022-11-15T01:26:28.955Z,98156.88
2022-11-15T01:28:55.375Z,98162.09
2022-11-15T01:31:22.336Z,98166.28
2022-11-15T01:33:49.527Z,98160.34
2022-11-15T01:36:18.885Z,98162.13
2022-11-15T01:38:45.541Z,98157.75
2022-11-15T01:41:22.121Z,98151.88
2022-11-15T01:44:18.403Z,98155.28
2022-11-15T01:46:48.384Z,98150.09
2022-11-15T01:49:21.823Z,98144.09
2022-11-15T01:51:48.471Z,98142.44
2022-11-15T01:54:18.104Z,98146.03
2022-11-15T01:56:54.127Z,98134.97
2022-11-15T01:59:20.937Z,98128.81
2022-11-15T02:01:47.956Z,98131.44
2022-11-15T02:04:17.892Z,98119.41
2022-11-15T02:06:45.306Z,98108.22
2022-11-15T02:09:12.634Z,98105.59
2022-11-15T02:11:39.203Z,98101.34
2022-11-15T02:14:07.051Z,98108.22
2022-11-15T02:17:20.224Z,98103.06
2022-11-15T02:20:05.478Z,98099.69
2022-11-15T02:23:04.286Z,98092.84
2022-11-15T02:25:36.724Z,98097.97
2022-11-15T02:28:26.480Z,98089.53
2022-11-15T02:31:11.806Z,98087.81
2022-11-15T02:33:50.290Z,98091.38
2022-11-15T02:36:29.790Z,98084.53
2022-11-15T02:39:24.311Z,98086.38
2022-11-15T02:41:58.431Z,98088.81
2022-11-15T02:44:33.654Z,98073.34
2022-11-15T02:47:14.211Z,98081.91
2022-11-15T02:49:44.663Z,98071.69
2022-11-15T02:52:16.626Z,98069.13
2022-11-15T02:54:43.013Z,98067.41
2022-11-15T02:57:17.583Z,98059.75
2022-11-15T03:00:04.920Z,98066.56
2022-11-15T03:02:40.095Z,98056.38
2022-11-15T03:05:24.837Z,98056.31
2022-11-15T03:08:02.465Z,98047.00
2022-11-15T03:10:41.394Z,98047.06
2022-11-15T03:13:22.534Z,98042.88
2022-11-15T03:16:02.040Z,98042.06
2022-11-15T03:18:45.294Z,98039.69
2022-11-15T03:21:14.183Z,98044.84
2022-11-15T03:23:40.957Z,98047.38
2022-11-15T03:26:12.632Z,98044.84
2022-11-15T03:28:48.283Z,98046.69
2022-11-15T03:31:36.285Z,98037.41
2022-11-15T03:34:06.896Z,98039.84
2022-11-15T03:36:34.519Z,98039.94
2022-11-15T03:39:06.290Z,98044.31
2022-11-15T03:41:42.700Z,98034.13
2022-11-15T03:44:28.051Z,98037.63
2022-11-15T03:47:24.551Z,98035.88
2022-11-15T03:50:00.293Z,98037.69
2022-11-15T03:52:26.827Z,98034.28
2022-11-15T03:54:58.142Z,98028.38
2022-11-15T03:57:24.793Z,98027.59
2022-11-15T03:59:51.247Z,98024.22
2022-11-15T04:02:17.702Z,98022.66
2022-11-15T04:04:44.182Z,98016.56
2022-11-15T04:07:10.931Z,98021.69
2022-11-15T04:09:57.855Z,98018.31
2022-11-15T04:12:31.746Z,98024.19
2022-11-15T04:15:09.463Z,98023.28
2022-11-15T04:17:44.641Z,98014.53
2022-11-15T04:20:34.568Z,98025.69
2022-11-15T04:23:21.366Z,98030.00
2022-11-15T04:25:51.104Z,98022.38
2022-11-15T04:28:17.752Z,98007.78
2022-11-15T04:30:44.234Z,98002.53
2022-11-15T04:33:10.632Z,98011.16
2022-11-15T04:35:37.168Z,98000.09
2022-11-15T04:38:05.379Z,97997.56
2022-11-15T04:40:31.889Z,97997.56
2022-11-15T04:43:03.570Z,97996.81
2022-11-15T04:45:30.963Z,97995.88
2022-11-15T04:47:57.450Z,98000.16
2022-11-15T04:50:23.868Z,98004.38
2022-11-15T04:52:55.072Z,98006.91
2022-11-15T04:55:21.547Z,97995.75
2022-11-15T04:57:47.993Z,97994.88
2022-11-15T05:00:17.098Z,97990.56
2022-11-15T05:03:01.894Z,97985.47
2022-11-15T05:05:28.437Z,97986.31
2022-11-15T05:07:54.840Z,97978.50
2022-11-15T05:10:21.392Z,97978.53
2022-11-15T05:12:47.791Z,97974.34
2022-11-15T05:15:14.217Z,97969.22
2022-11-15T05:17:40.658Z,97967.44
2022-11-15T05:20:07.682Z,97969.13
2022-11-15T05:22:34.090Z,97970.91
2022-11-15T05:25:00.575Z,97969.13
2022-11-15T05:27:27.041Z,97971.72
2022-11-15T05:29:53.493Z,97966.50
2022-11-15T05:32:19.910Z,97966.63
2022-11-15T05:34:47.390Z,97973.41
2022-11-15T05:37:14.858Z,97970.75
2022-11-15T05:39:41.294Z,97977.59
2022-11-15T05:42:13.648Z,97971.59
2022-11-15T05:44:44.653Z,97965.53
2022-11-15T05:47:15.287Z,97962.22
2022-11-15T05:49:45.462Z,97961.31
2022-11-15T05:52:15.616Z,97960.66
2022-11-15T05:54:42.408Z,97964.88
2022-11-15T05:57:08.943Z,97953.97
2022-11-15T05:59:36.111Z,97962.47
2022-11-15T06:02:02.636Z,97961.63
2022-11-15T06:04:29.217Z,97962.63
2022-11-15T06:06:55.725Z,97953.38
2022-11-15T06:09:22.131Z,97959.44
2022-11-15T06:11:49.070Z,97949.06
2022-11-15T06:14:15.544Z,97955.06
2022-11-15T06:16:42.049Z,97949.91
2022-11-15T06:19:08.809Z,97953.19
2022-11-15T06:21:35.278Z,97954.69
2022-11-15T06:24:02.228Z,97950.31
2022-11-15T06:26:28.629Z,97956.28
2022-11-15T06:28:55.035Z,97955.44
2022-11-15T06:31:21.452Z,97952.78
2022-11-15T06:33:48.126Z,97962.03
2022-11-15T06:36:17.764Z,97961.91
2022-11-15T06:38:45.458Z,97964.41
2022-11-15T06:41:13.263Z,97974.72
2022-11-15T06:43:40.815Z,97980.59
2022-11-15T06:46:07.876Z,97981.59
2022-11-15T06:48:35.255Z,97972.00
2022-11-15T06:51:03.468Z,97974.56
2022-11-15T06:53:30.968Z,97972.16
2022-11-15T06:56:08.065Z,97960.22
2022-11-15T06:58:34.680Z,97966.19
2022-11-15T07:01:03.726Z,97966.94
2022-11-15T07:03:30.842Z,97972.72
2022-11-15T07:06:02.722Z,97964.03
2022-11-15T07:08:33.194Z,97970.81
2022-11-15T07:11:02.635Z,97964.72
2022-11-15T07:13:31.521Z,97961.22
2022-11-15T07:15:58.105Z,97964.34
2022-11-15T07:18:24.859Z,97955.09
2022-11-15T07:20:51.269Z,97944.09
2022-11-15T07:23:17.692Z,97949.09
2022-11-15T07:25:44.287Z,97935.38
2022-11-15T07:28:11.115Z,97933.97
2022-11-15T07:30:41.275Z,97929.66
2022-11-15T07:33:11.405Z,97933.28
2022-11-15T07:35:37.905Z,97924.56
2022-11-15T07:38:04.674Z,97924.91
2022-11-15T07:40:32.891Z,97939.00
2022-11-15T07:43:03.972Z,97935.06
2022-11-15T07:45:30.662Z,97938.78
2022-11-15T07:47:57.616Z,97939.78
2022-11-15T07:50:25.110Z,97933.16
2022-11-15T07:52:56.306Z,97936.50
2022-11-15T07:55:24.015Z,97941.56
2022-11-15T07:57:50.690Z,97940.50
2022-11-15T08:00:17.594Z,97941.69
2022-11-15T08:02:44.101Z,97941.22
2022-11-15T08:05:10.713Z,97934.13
2022-11-15T08:07:38.971Z,97932.41
2022-11-15T08:10:06.934Z,97936.38
2022-11-15T08:12:33.400Z,97940.88
2022-11-15T08:14:59.844Z,97929.75
2022-11-15T08:17:26.325Z,97930.88
2022-11-15T08:19:52.832Z,97931.69
2022-11-15T08:22:19.624Z,97931.97
2022-11-15T08:24:46.037Z,97936.88
2022-11-15T08:27:18.596Z,97937.41
2022-11-15T08:29:45.997Z,97942.88
2022-11-15T08:32:12.827Z,97932.00
2022-11-15T08:34:39.496Z,97937.03
2022-11-15T08:37:06.110Z,97937.38
2022-11-15T08:39:33.045Z,97937.22
2022-11-15T08:42:00.230Z,97935.19
2022-11-15T08:44:26.847Z,97925.34
2022-11-15T08:46:53.333Z,97931.91
2022-11-15T08:49:19.733Z,97930.47
2022-11-15T08:51:46.157Z,97925.41
2022-11-15T08:54:12.561Z,97927.97
2022-11-15T08:56:39.034Z,97921.06
2022-11-15T08:59:05.441Z,97923.41
2022-11-15T09:01:33.411Z,97918.00
2022-11-15T09:03:59.883Z,97915.34
2022-11-15T09:06:26.326Z,97903.00
2022-11-15T09:08:52.876Z,97903.22
2022-11-15T09:11:21.339Z,97897.66
2022-11-15T09:13:47.876Z,97904.84
2022-11-15T09:16:16.142Z,97899.94
2022-11-15T09:18:42.521Z,97898.59
2022-11-15T09:21:10.055Z,97892.81
2022-11-15T09:23:36.834Z,97896.03
2022-11-15T09:26:05.619Z,97896.84
2022-11-15T09:28:33.955Z,97898.75
2022-11-15T09:31:02.905Z,97892.47
2022-11-15T09:33:30.122Z,97889.53
2022-11-15T09:36:05.846Z,97877.78
2022-11-15T09:38:33.192Z,97886.88
2022-11-15T09:41:39.598Z,97887.91
2022-11-15T09:44:28.812Z,97879.38
2022-11-15T09:47:26.303Z,97873.25
2022-11-15T09:49:59.533Z,97874.50
2022-11-15T09:52:26.242Z,97870.44
2022-11-15T09:54:55.512Z,97878.47
2022-11-15T09:57:33.428Z,97870.66
2022-11-15T10:00:47.672Z,97868.41
2022-11-15T10:03:20.132Z,97861.53
2022-11-15T10:05:48.647Z,97861.41
2022-11-15T10:08:29.792Z,97865.38
2022-11-15T10:11:30.125Z,97859.06
2022-11-15T10:13:51.474Z,97852.13
2022-11-15T10:16:36.442Z,97851.31
2022-11-15T10:19:41.565Z,97842.06
2022-11-15T10:22:51.730Z,97833.19
2022-11-15T10:25:20.827Z,97828.56
2022-11-15T10:27:55.662Z,97825.66
2022-11-15T10:30:23.105Z,97821.63
2022-11-15T10:32:50.527Z,97820.72
2022-11-15T10:35:43.632Z,97815.13
2022-11-15T10:38:12.347Z,97816.34
2022-11-15T10:40:41.057Z,97806.97
2022-11-15T10:43:10.593Z,97797.34
2022-11-15T10:45:38.280Z,97794.72
2022-11-15T10:48:13.898Z,97793.03
2022-11-15T10:50:51.005Z,97792.03
2022-11-15T10:53:40.635Z,97789.88
2022-11-15T10:56:12.749Z,97783.84
2022-11-15T10:58:52.486Z,97782.72
2022-11-15T11:01:22.929Z,97776.09
2022-11-15T11:04:22.165Z,97773.88
2022-11-15T11:06:49.406Z,97763.50
2022-11-15T11:09:36.515Z,97766.50
2022-11-15T11:12:05.467Z,97769.19
2022-11-15T11:14:34.915Z,97767.50
2022-11-15T11:17:22.823Z,97763.50
2022-11-15T11:20:01.519Z,97765.59
2022-11-15T11:22:41.436Z,97756.66
2022-11-15T11:25:33.218Z,97749.53
2022-11-15T11:28:08.729Z,97750.63
2022-11-15T11:30:58.224Z,97739.25
2022-11-15T11:33:37.085Z,97744.03
2022-11-15T11:36:20.408Z,97742.59
2022-11-15T11:39:11.924Z,97740.09
2022-11-15T11:41:44.466Z,97735.09
2022-11-15T11:44:34.627Z,97729.31
2022-11-15T11:47:02.772Z,97728.97
2022-11-15T11:49:35.779Z,97720.88
2022-11-15T11:52:31.024Z,97719.03
2022-11-15T11:55:03.494Z,97712.66
2022-11-15T11:57:37.275Z,97721.19
2022-11-15T12:00:16.758Z,97712.38
2022-11-15T12:02:50.774Z,97711.34
2022-11-15T12:05:57.549Z,97709.50
2022-11-15T12:08:31.848Z,97699.13
2022-11-15T12:11:24.830Z,97704.97
2022-11-15T12:13:57.876Z,97700.66
2022-11-15T12:16:30.242Z,97698.06
2022-11-15T12:19:03.370Z,97695.03
2022-11-15T12:21:40.649Z,97697.25
2022-11-15T12:24:38.219Z,97692.56
2022-11-15T12:27:20.554Z,97693.56
2022-11-15T12:29:53.842Z,97687.53
2022-11-15T12:32:37.014Z,97686.88
2022-11-15T12:35:07.397Z,97693.56
2022-11-15T12:37:36.890Z,97685.63
2022-11-15T12:40:22.323Z,97692.56
2022-11-15T12:43:13.847Z,97687.38
2022-11-15T12:45:43.355Z,97686.84
2022-11-15T12:48:36.273Z,97683.06
2022-11-15T12:51:02.946Z,97678.44
2022-11-15T12:53:34.474Z,97675.75
2022-11-15T12:56:03.936Z,97680.97
2022-11-15T12:58:51.292Z,97676.91
2022-11-15T13:01:39.002Z,97670.59
2022-11-15T13:04:29.895Z,97668.88
2022-11-15T13:07:01.173Z,97665.13
2022-11-15T13:09:30.726Z,97667.97
2022-11-15T13:11:59.425Z,97671.66
2022-11-15T13:14:38.045Z,97664.38
2022-11-15T13:17:20.003Z,97659.25
2022-11-15T13:19:56.370Z,97650.41
2022-11-15T13:22:41.324Z,97656.38
2022-11-15T13:25:21.413Z,97642.41
2022-11-15T13:27:50.175Z,97642.53
2022-11-15T13:30:26.191Z,97648.84
2022-11-15T13:32:53.744Z,97642.41
2022-11-15T13:35:32.534Z,97638.41
2022-11-15T13:38:04.827Z,97633.88
2022-11-15T13:40:37.076Z,97624.84
2022-11-15T13:43:36.482Z,97624.44
2022-11-15T13:46:23.944Z,97616.50
2022-11-15T13:49:01.049Z,97609.16
2022-11-15T13:51:31.072Z,97612.13
2022-11-15T13:54:03.587Z,97605.59
2022-11-15T13:56:33.090Z,97606.63
2022-11-15T13:58:59.599Z,97599.41
2022-11-15T14:01:29.863Z,97590.72
2022-11-15T14:04:01.495Z,97590.22
2022-11-15T14:06:30.705Z,97590.06
2022-11-15T14:09:12.095Z,97592.03
2022-11-15T14:11:54.214Z,97596.22
2022-11-15T14:14:23.896Z,97588.28
2022-11-15T14:16:53.594Z,97591.78
2022-11-15T14:19:26.011Z,97589.44
2022-11-15T14:22:22.851Z,97590.69
2022-11-15T14:25:18.710Z,97586.66
2022-11-15T14:28:05.886Z,97581.28
2022-11-15T14:30:32.369Z,97580.75
2022-11-15T14:32:58.890Z,97577.78
2022-11-15T14:35:25.540Z,97591.03
2022-11-15T14:37:52.032Z,97577.69
2022-11-15T14:40:21.533Z,97571.97
2022-11-15T14:42:49.708Z,97575.94
2022-11-15T14:45:21.485Z,97568.78
2022-11-15T14:47:48.840Z,97572.66
2022-11-15T14:50:18.279Z,97576.53
2022-11-15T14:52:45.876Z,97570.81
2022-11-15T14:55:19.235Z,97562.69
2022-11-15T14:57:46.423Z,97561.72
2022-11-15T15:00:13.908Z,97557.09
2022-11-15T15:02:42.653Z,97551.44
2022-11-15T15:05:33.369Z,97557.59
2022-11-15T15:08:00.292Z,97552.81
2022-11-15T15:10:40.971Z,97549.13
2022-11-15T15:13:17.878Z,97537.16
2022-11-15T15:15:44.813Z,97539.72
2022-11-15T15:18:12.278Z,97532.31
2022-11-15T15:20:40.939Z,97522.53
2022-11-15T15:23:16.706Z,97522.09
2022-11-15T15:25:44.534Z,97520.19
2022-11-15T15:28:10.985Z,97518.66
2022-11-15T15:30:37.471Z,97514.13
2022-11-15T15:33:04.080Z,97513.66
2022-11-15T15:35:33.870Z,97521.56
2022-11-15T15:38:00.805Z,97523.88
2022-11-15T15:40:30.446Z,97528.50
2022-11-15T15:42:56.927Z,97536.56
2022-11-15T15:45:23.390Z,97531.69
2022-11-15T15:47:51.050Z,97532.22
2022-11-15T15:50:34.526Z,97523.34
2022-11-15T15:53:02.612Z,97524.56
2022-11-15T15:55:29.684Z,97526.44
2022-11-15T15:57:56.502Z,97524.06
2022-11-15T16:00:25.621Z,97531.13
2022-11-15T16:02:53.306Z,97524.41
2022-11-15T16:05:19.966Z,97527.22
2022-11-15T16:07:48.283Z,97523.84
2022-11-15T16:10:26.841Z,97516.63
2022-11-15T16:12:54.409Z,97518.47
2022-11-15T16:15:22.368Z,97514.97
2022-11-15T16:17:52.055Z,97513.47
2022-11-15T16:20:40.394Z,97510.19
2022-11-15T16:23:10.226Z,97511.03
2022-11-15T16:25:54.072Z,97512.81
2022-11-15T16:28:22.033Z,97504.28
2022-11-15T16:30:53.871Z,97511.88
2022-11-15T16:33:23.281Z,97507.56
2022-11-15T16:35:49.699Z,97514.44
2022-11-15T16:38:17.145Z,97505.00
2022-11-15T16:40:43.799Z,97506.56
2022-11-15T16:43:11.035Z,97502.97
2022-11-15T16:45:37.850Z,97495.16
2022-11-15T16:48:05.001Z,97505.19
2022-11-15T16:50:40.624Z,97505.97
2022-11-15T16:53:07.347Z,97505.97
2022-11-15T16:55:33.815Z,97490.41
2022-11-15T16:58:01.781Z,97481.63
2022-11-15T17:00:31.153Z,97479.84
2022-11-15T17:02:57.892Z,97478.78
2022-11-15T17:05:27.161Z,97480.31
2022-11-15T17:07:56.324Z,97484.44
2022-11-15T17:10:24.488Z,97473.91
2022-11-15T17:12:51.715Z,97473.00
2022-11-15T17:15:19.126Z,97473.75
2022-11-15T17:17:52.883Z,97469.34
2022-11-15T17:20:21.362Z,97458.88
2022-11-15T17:22:50.524Z,97447.38
2022-11-15T17:25:16.970Z,97446.91
2022-11-15T17:27:43.669Z,97442.28
2022-11-15T17:30:12.872Z,97443.59
2022-11-15T17:32:39.307Z,97434.47
2022-11-15T17:35:14.908Z,97432.41
2022-11-15T17:37:44.233Z,97436.59
2022-11-15T17:40:11.446Z,97432.78
2022-11-15T17:42:40.790Z,97425.66
2022-11-15T17:45:10.136Z,97433.78
2022-11-15T17:47:37.223Z,97419.88
2022-11-15T17:50:03.969Z,97415.59
2022-11-15T17:52:30.657Z,97423.31
2022-11-15T17:54:57.068Z,97426.59
2022-11-15T17:57:23.492Z,97422.91
2022-11-15T17:59:49.938Z,97420.19
2022-11-15T18:02:16.457Z,97413.22
2022-11-15T18:04:42.863Z,97413.22
2022-11-15T18:07:11.658Z,97416.63
2022-11-15T18:09:42.318Z,97414.75
2022-11-15T18:12:09.155Z,97411.41
2022-11-15T18:14:35.782Z,97408.84
2022-11-15T18:17:02.177Z,97413.22
2022-11-15T18:19:28.567Z,97409.72
2022-11-15T18:21:58.884Z,97407.28
2022-11-15T18:24:28.412Z,97403.06
2022-11-15T18:26:56.935Z,97402.13
2022-11-15T18:29:24.597Z,97397.94
2022-11-15T18:31:54.979Z,97392.47
2022-11-15T18:34:33.361Z,97388.50
2022-11-15T18:37:01.332Z,97381.88
2022-11-15T18:39:30.269Z,97375.16
2022-11-15T18:41:57.920Z,97376.56
2022-11-15T18:44:24.365Z,97370.50
2022-11-15T18:46:51.050Z,97375.16
2022-11-15T18:49:19.586Z,97374.53
2022-11-15T18:51:46.082Z,97371.97
2022-11-15T18:54:14.676Z,97361.66
2022-11-15T18:56:44.531Z,97364.16
2022-11-15T18:59:11.525Z,97353.13
2022-11-15T19:01:39.961Z,97353.28
2022-11-15T19:04:18.588Z,97338.19
2022-11-15T19:06:49.394Z,97334.63
2022-11-15T19:09:17.956Z,97333.53
2022-11-15T19:11:45.350Z,97324.84
2022-11-15T19:14:14.546Z,97328.22
2022-11-15T19:16:46.104Z,97330.81
2022-11-15T19:19:17.787Z,97324.66
2022-11-15T19:21:44.598Z,97320.41
2022-11-15T19:24:11.028Z,97323.75
2022-11-15T19:26:38.378Z,97311.75
2022-11-15T19:29:06.416Z,97315.25
2022-11-15T19:31:33.277Z,97311.91
2022-11-15T19:34:01.533Z,97317.56
2022-11-15T19:36:33.302Z,97314.81
2022-11-15T19:39:05.122Z,97322.63
2022-11-15T19:41:32.162Z,97320.81
2022-11-15T19:43:58.580Z,97324.31
2022-11-15T19:46:26.851Z,97327.72
2022-11-15T19:48:54.004Z,97328.53
2022-11-15T19:51:25.964Z,97329.72
2022-11-15T19:53:54.064Z,97333.91
2022-11-15T19:56:21.720Z,97330.72
2022-11-15T19:58:53.882Z,97328.22
2022-11-15T20:01:24.058Z,97326.69
2022-11-15T20:03:53.946Z,97328.47
2022-11-15T20:06:24.378Z,97334.06
2022-11-15T20:08:51.352Z,97329.25
2022-11-15T20:11:18.761Z,97327.22
2022-11-15T20:13:45.862Z,97318.03
2022-11-15T20:16:20.983Z,97323.47
2022-11-15T20:18:48.761Z,97315.88
2022-11-15T20:21:15.287Z,97326.53
2022-11-15T20:23:42.517Z,97328.06
2022-11-15T20:26:10.458Z,97340.03
2022-11-15T20:28:38.948Z,97335.00
2022-11-15T20:31:05.979Z,97334.31
2022-11-15T20:33:32.448Z,97341.22
2022-11-15T20:36:03.214Z,97335.22
2022-11-15T20:38:29.710Z,97336.06
2022-11-15T20:41:00.135Z,97339.53
2022-11-15T20:43:27.113Z,97339.41
2022-11-15T20:45:53.815Z,97336.19
2022-11-15T20:48:20.249Z,97333.66
2022-11-15T20:50:48.739Z,97329.56
2022-11-15T20:53:16.628Z,97330.41
2022-11-15T20:55:47.583Z,97330.47
2022-11-15T20:58:15.217Z,97327.97
2022-11-15T21:00:43.175Z,97325.66
2022-11-15T21:03:09.753Z,97322.22
2022-11-15T21:05:41.080Z,97318.88
2022-11-15T21:08:08.190Z,97310.28
2022-11-15T21:10:53.234Z,97305.19
2022-11-15T21:13:27.154Z,97295.00
2022-11-15T21:15:59.137Z,97293.63
2022-11-15T21:18:25.592Z,97292.56
2022-11-15T21:20:58.027Z,97287.41
2022-11-15T21:23:24.421Z,97279.97
2022-11-15T21:25:55.365Z,97269.59
2022-11-15T21:28:21.730Z,97262.84
2022-11-15T21:30:59.532Z,97266.59
2022-11-15T21:33:29.618Z,97260.94
2022-11-15T21:35:57.388Z,97256.66
2022-11-15T21:38:24.729Z,97251.72
2022-11-15T21:40:52.508Z,97250.91
2022-11-15T21:43:20.116Z,97260.19
2022-11-15T21:46:01.122Z,97255.38
2022-11-15T21:48:32.670Z,97255.31
2022-11-15T21:51:00.564Z,97249.56
2022-11-15T21:53:27.993Z,97239.25
2022-11-15T21:55:54.990Z,97237.31
2022-11-15T21:58:22.392Z,97233.09
2022-11-15T22:01:07.839Z,97237.66
2022-11-15T22:03:34.939Z,97236.50
2022-11-15T22:06:01.750Z,97241.63
2022-11-15T22:08:28.147Z,97237.56
2022-11-15T22:10:56.664Z,97236.16
2022-11-15T22:13:24.366Z,97234.47
2022-11-15T22:15:54.087Z,97247.66
2022-11-15T22:18:26.617Z,97241.81
2022-11-15T22:20:59.037Z,97235.38
2022-11-15T22:23:27.751Z,97241.59
2022-11-15T22:25:57.101Z,97251.06
2022-11-15T22:28:24.224Z,97246.34
2022-11-15T22:30:55.599Z,97244.22
2022-11-15T22:33:24.359Z,97235.59
2022-11-15T22:35:51.206Z,97232.31
2022-11-15T22:38:18.222Z,97224.13
2022-11-15T22:40:47.337Z,97227.81
2022-11-15T22:43:18.927Z,97221.03
2022-11-15T22:45:52.524Z,97222.19
2022-11-15T22:48:20.781Z,97206.91
2022-11-15T22:50:47.434Z,97215.53
2022-11-15T22:53:14.015Z,97196.56
2022-11-15T22:55:41.405Z,97190.41
2022-11-15T22:58:10.954Z,97176.84
2022-11-15T23:00:37.469Z,97176.16
2022-11-15T23:03:04.280Z,97159.31
2022-11-15T23:05:31.971Z,97168.06
2022-11-15T23:08:00.871Z,97157.25
2022-11-15T23:10:45.953Z,97150.59
2022-11-15T23:13:16.486Z,97143.88
2022-11-15T23:16:08.731Z,97129.13
2022-11-15T23:18:37.339Z,97133.56
2022-11-15T23:21:11.421Z,97127.56
2022-11-15T23:23:38.711Z,97126.91
2022-11-15T23:26:05.582Z,97127.09
2022-11-15T23:28:33.567Z,97122.66
2022-11-15T23:31:26.446Z,97132.75
2022-11-15T23:33:59.084Z,97132.75
2022-11-15T23:36:26.799Z,97127.75
2022-11-15T23:38:56.574Z,97128.03
2022-11-15T23:41:23.979Z,97126.97
2022-11-15T23:43:51.517Z,97123.63
2022-11-15T23:46:18.089Z,97131.50
2022-11-15T23:48:44.513Z,97138.53
2022-11-15T23:51:11.242Z,97130.16
2022-11-15T23:53:37.825Z,97133.69
2022-11-15T23:56:11.847Z,97138.81
2022-11-15T23:58:41.181Z,97140.66
